createdAt,value
2022-12-26T00:00:32.218Z,4.65
2022-12-26T00:02:59.180Z,5.82
2022-12-26T00:05:25.949Z,4.88
2022-12-26T00:07:52.544Z,6.13
2022-12-26T00:10:19.446Z,5.63
2022-12-26T00:12:46.166Z,6.15
2022-12-26T00:15:12.759Z,5.25
2022-12-26T00:17:42.495Z,5.80
2022-12-26T00:20:09.834Z,5.72
2022-12-26T00:22:36.506Z,5.90
2022-12-26T00:25:03.350Z,4.75
2022-12-26T00:27:29.955Z,7.35
2022-12-26T00:29:56.630Z,4.63
2022-12-26T00:32:26.294Z,6.60
2022-12-26T00:34:55.637Z,7.30
2022-12-26T00:37:22.380Z,4.55
2022-12-26T00:39:49.023Z,4.50
2022-12-26T00:42:15.764Z,4.78
2022-12-26T00:44:42.437Z,5.38
2022-12-26T00:47:09.154Z,4.88
2022-12-26T00:50:13.727Z,6.63
2022-12-26T00:52:22.513Z,4.80
2022-12-26T00:54:51.689Z,5.43
2022-12-26T00:57:18.391Z,5.10
2022-12-26T00:59:45.073Z,4.45
2022-12-26T01:02:31.771Z,4.05
2022-12-26T01:04:58.588Z,6.13
2022-12-26T01:07:27.106Z,4.65
2022-12-26T01:09:53.851Z,5.60
2022-12-26T01:12:20.474Z,5.50
2022-12-26T01:14:47.342Z,4.57
2022-12-26T01:17:14.185Z,4.28
2022-12-26T01:19:40.802Z,5.57
2022-12-26T01:22:07.446Z,5.13
2022-12-26T01:24:34.395Z,3.90
2022-12-26T01:27:01.089Z,5.07
2022-12-26T01:29:27.935Z,5.43
2022-12-26T01:31:54.708Z,4.30
2022-12-26T01:34:21.627Z,4.85
2022-12-26T01:36:48.296Z,5.15
2022-12-26T01:39:15.819Z,6.53
2022-12-26T01:41:42.453Z,4.63
2022-12-26T01:44:46.329Z,4.45
2022-12-26T01:47:15.483Z,4.22
2022-12-26T01:49:44.324Z,4.63
2022-12-26T01:52:29.110Z,4.30
2022-12-26T01:54:56.653Z,5.18
2022-12-26T01:57:29.436Z,4.20
2022-12-26T01:59:58.570Z,5.50
2022-12-26T02:02:28.515Z,6.00
2022-12-26T02:05:16.452Z,6.63
2022-12-26T02:07:46.004Z,3.97
2022-12-26T02:10:20.631Z,5.97
2022-12-26T02:12:48.619Z,5.05
2022-12-26T02:15:17.516Z,6.03
2022-12-26T02:17:44.939Z,8.73
2022-12-26T02:21:04.187Z,5.78
2022-12-26T02:26:37.629Z,5.90
2022-12-26T02:29:35.840Z,5.78
2022-12-26T02:32:21.105Z,5.93
2022-12-26T02:35:00.626Z,5.45
2022-12-26T02:40:11.292Z,4.10
2022-12-26T02:43:05.970Z,5.15
2022-12-26T02:46:01.939Z,6.60
2022-12-26T02:48:31.642Z,4.70
2022-12-26T02:51:44.756Z,5.03
2022-12-26T02:54:42.106Z,4.30
2022-12-26T02:57:35.298Z,6.40
2022-12-26T03:00:41.195Z,6.35
2022-12-26T03:03:33.138Z,5.07
2022-12-26T03:06:31.664Z,4.45
2022-12-26T03:09:27.232Z,4.07
2022-12-26T03:12:19.018Z,4.40
2022-12-26T03:14:54.242Z,4.97
2022-12-26T03:17:41.575Z,3.55
2022-12-26T03:20:18.705Z,5.75
2022-12-26T03:23:14.263Z,4.53
2022-12-26T03:26:11.602Z,3.15
2022-12-26T03:28:39.393Z,5.00
2022-12-26T03:31:11.389Z,4.80
2022-12-26T03:34:00.816Z,4.05
2022-12-26T03:39:49.029Z,4.35
2022-12-26T03:42:55.679Z,3.55
2022-12-26T03:46:18.641Z,5.30
2022-12-26T03:49:14.867Z,5.75
2022-12-26T03:52:20.338Z,4.68
2022-12-26T03:55:55.324Z,8.18
2022-12-26T03:58:50.279Z,4.10
2022-12-26T04:01:40.307Z,6.13
2022-12-26T04:04:30.453Z,5.10
2022-12-26T04:07:27.149Z,4.20
2022-12-26T04:10:23.636Z,3.65
2022-12-26T04:13:11.060Z,4.22
2022-12-26T04:16:09.757Z,4.70
2022-12-26T04:19:02.706Z,4.72
2022-12-26T04:22:00.630Z,3.35
2022-12-26T04:24:51.259Z,4.57
2022-12-26T04:27:40.810Z,6.18
2022-12-26T04:30:26.508Z,3.83
2022-12-26T04:33:15.307Z,5.45
2022-12-26T04:36:16.713Z,6.15
2022-12-26T04:39:07.932Z,6.25
2022-12-26T04:41:55.286Z,5.32
2022-12-26T04:44:24.413Z,3.40
2022-12-26T04:46:53.686Z,5.57
2022-12-26T04:49:38.783Z,5.43
2022-12-26T04:52:08.635Z,4.53
2022-12-26T04:54:35.550Z,4.57
2022-12-26T04:57:02.259Z,5.15
2022-12-26T04:59:28.963Z,3.95
2022-12-26T05:02:14.187Z,4.20
2022-12-26T05:04:59.202Z,4.22
2022-12-26T05:07:47.881Z,5.32
2022-12-26T05:10:32.360Z,5.68
2022-12-26T05:12:58.980Z,4.53
2022-12-26T05:15:25.787Z,3.65
2022-12-26T05:18:11.143Z,7.50
2022-12-26T05:20:58.280Z,5.30
2022-12-26T05:23:46.332Z,3.30
2022-12-26T05:26:37.445Z,7.07
2022-12-26T05:29:04.323Z,3.83
2022-12-26T05:31:36.031Z,4.50
2022-12-26T05:34:22.439Z,6.20
2022-12-26T05:36:53.380Z,5.10
2022-12-26T05:39:20.144Z,4.47
2022-12-26T05:41:46.825Z,3.90
2022-12-26T05:44:13.516Z,4.72
2022-12-26T05:46:42.525Z,5.00
2022-12-26T05:49:10.121Z,8.65
2022-12-26T05:51:36.825Z,5.93
2022-12-26T05:54:03.883Z,3.67
2022-12-26T05:56:30.879Z,4.20
2022-12-26T05:58:59.791Z,4.03
2022-12-26T06:01:28.507Z,4.30
2022-12-26T06:03:57.917Z,4.07
2022-12-26T06:08:54.457Z,3.10
2022-12-26T06:11:23.063Z,3.28
2022-12-26T06:13:49.740Z,5.23
2022-12-26T06:16:19.016Z,5.55
2022-12-26T06:18:46.689Z,5.13
2022-12-26T06:21:16.321Z,4.72
2022-12-26T06:23:43.802Z,4.53
2022-12-26T06:26:12.746Z,6.82
2022-12-26T06:28:41.630Z,4.10
2022-12-26T06:31:11.343Z,6.90
2022-12-26T06:33:38.377Z,3.63
2022-12-26T06:36:09.724Z,4.57
2022-12-26T06:38:36.436Z,5.18
2022-12-26T06:41:05.701Z,4.20
2022-12-26T06:43:32.855Z,6.80
2022-12-26T06:46:00.883Z,5.10
2022-12-26T06:48:28.021Z,4.53
2022-12-26T06:50:55.033Z,4.90
2022-12-26T06:53:22.868Z,4.40
2022-12-26T06:55:50.277Z,8.20
2022-12-26T06:58:17.639Z,8.95
2022-12-26T07:00:44.456Z,5.00
2022-12-26T07:03:11.373Z,5.18
2022-12-26T07:05:38.916Z,5.57
2022-12-26T07:08:05.793Z,3.60
2022-12-26T07:10:36.503Z,5.47
2022-12-26T07:13:03.170Z,6.15
2022-12-26T07:15:29.847Z,6.32
2022-12-26T07:17:56.497Z,6.97
2022-12-26T07:20:23.110Z,5.28
2022-12-26T07:22:49.769Z,5.65
2022-12-26T07:25:16.422Z,7.15
2022-12-26T07:27:43.034Z,4.10
2022-12-26T07:30:10.458Z,4.40
2022-12-26T07:32:37.099Z,3.17
2022-12-26T07:35:03.889Z,4.57
2022-12-26T07:37:30.527Z,8.57
2022-12-26T07:39:59.357Z,4.45
2022-12-26T07:42:26.447Z,6.63
2022-12-26T07:44:53.082Z,5.65
2022-12-26T07:47:19.742Z,7.18
2022-12-26T07:49:47.931Z,6.10
2022-12-26T07:52:14.610Z,7.15
2022-12-26T07:54:41.235Z,4.00
2022-12-26T07:57:47.552Z,4.20
2022-12-26T07:59:54.528Z,5.43
2022-12-26T08:02:21.342Z,6.72
2022-12-26T08:04:48.084Z,4.47
2022-12-26T08:07:14.787Z,5.50
2022-12-26T08:09:43.145Z,4.70
2022-12-26T08:12:09.992Z,3.90
2022-12-26T08:14:40.717Z,3.70
2022-12-26T08:17:08.192Z,7.85
2022-12-26T08:19:34.912Z,4.63
2022-12-26T08:22:01.528Z,9.02
2022-12-26T08:24:28.134Z,8.60
2022-12-26T08:26:54.819Z,5.30
2022-12-26T08:29:21.437Z,4.97
2022-12-26T08:31:48.069Z,5.75
2022-12-26T08:34:14.711Z,5.38
2022-12-26T08:36:41.502Z,3.50
2022-12-26T08:39:08.215Z,6.65
2022-12-26T08:41:34.892Z,7.57
2022-12-26T08:44:26.935Z,8.15
2022-12-26T08:46:48.375Z,4.95
2022-12-26T08:49:14.997Z,3.83
2022-12-26T08:51:41.738Z,6.38
2022-12-26T08:54:08.472Z,3.15
2022-12-26T08:56:35.170Z,5.78
2022-12-26T08:59:01.908Z,5.50
2022-12-26T09:01:31.195Z,6.57
2022-12-26T09:04:02.108Z,6.40
2022-12-26T09:06:31.474Z,4.95
2022-12-26T09:08:59.743Z,2.80
2022-12-26T09:11:27.083Z,4.90
2022-12-26T09:13:53.851Z,3.22
2022-12-26T09:16:23.461Z,4.88
2022-12-26T09:18:55.720Z,2.15
2022-12-26T09:21:22.476Z,3.78
2022-12-26T09:23:49.083Z,4.20
2022-12-26T09:26:19.694Z,4.82
2022-12-26T09:28:47.303Z,3.72
2022-12-26T09:31:16.228Z,6.28
2022-12-26T09:33:43.232Z,3.22
2022-12-26T09:36:15.077Z,4.18
2022-12-26T09:38:44.033Z,3.70
2022-12-26T09:41:16.566Z,3.47
2022-12-26T09:43:50.051Z,4.85
2022-12-26T09:46:40.335Z,1.88
2022-12-26T09:49:11.513Z,2.42
2022-12-26T09:51:41.872Z,1.55
2022-12-26T09:54:18.199Z,1.40
2022-12-26T09:57:02.407Z,2.33
2022-12-26T09:59:32.764Z,2.30
2022-12-26T10:01:59.446Z,5.05
2022-12-26T10:04:30.229Z,2.88
2022-12-26T10:07:17.377Z,5.88
2022-12-26T10:09:55.755Z,4.40
2022-12-26T10:12:28.488Z,3.58
2022-12-26T10:15:04.307Z,4.05
2022-12-26T10:17:47.021Z,2.92
2022-12-26T10:20:22.450Z,3.80
2022-12-26T10:22:55.081Z,2.28
2022-12-26T10:26:00.909Z,2.03
2022-12-26T10:29:16.886Z,2.00
2022-12-26T10:31:49.859Z,2.42
2022-12-26T10:34:35.145Z,2.17
2022-12-26T10:37:10.170Z,3.03
2022-12-26T10:39:54.962Z,1.17
2022-12-26T10:42:37.451Z,1.67
2022-12-26T10:45:13.112Z,1.25
2022-12-26T10:47:41.767Z,1.88
2022-12-26T10:50:23.844Z,1.23
2022-12-26T10:52:54.158Z,2.28
2022-12-26T10:55:35.295Z,8.45
2022-12-26T10:58:09.939Z,2.97
2022-12-26T11:00:36.577Z,1.67
2022-12-26T11:03:09.085Z,1.50
2022-12-26T11:08:51.881Z,7.15
2022-12-26T11:11:18.471Z,2.08
2022-12-26T11:14:00.917Z,2.42
2022-12-26T11:16:38.684Z,2.58
2022-12-26T11:19:05.565Z,2.80
2022-12-26T11:21:33.400Z,1.60
2022-12-26T11:24:09.160Z,2.25
2022-12-26T11:26:37.093Z,2.78
2022-12-26T11:29:13.933Z,1.10
2022-12-26T11:31:43.779Z,3.17
2022-12-26T11:34:17.316Z,0.95
2022-12-26T11:36:50.261Z,1.70
2022-12-26T11:39:38.061Z,2.15
2022-12-26T11:42:12.700Z,3.92
2022-12-26T11:44:45.052Z,1.10
2022-12-26T11:47:17.656Z,4.45
2022-12-26T11:50:04.155Z,1.25
2022-12-26T11:52:52.930Z,1.95
2022-12-26T11:55:22.466Z,2.13
2022-12-26T11:57:58.869Z,2.60
2022-12-26T12:00:27.262Z,3.83
2022-12-26T12:02:54.247Z,1.65
2022-12-26T12:05:38.517Z,1.73
2022-12-26T12:08:17.185Z,1.95
2022-12-26T12:10:56.917Z,2.63
2022-12-26T12:13:23.453Z,3.08
2022-12-26T12:16:16.369Z,2.45
2022-12-26T12:19:07.966Z,3.17
2022-12-26T12:22:02.118Z,2.30
2022-12-26T12:24:42.764Z,2.55
2022-12-26T12:27:34.573Z,2.58
2022-12-26T12:30:15.664Z,3.15
2022-12-26T12:33:00.848Z,1.88
2022-12-26T12:35:57.205Z,1.65
2022-12-26T12:38:24.692Z,7.28
2022-12-26T12:41:17.363Z,2.30
2022-12-26T12:43:55.699Z,1.80
2022-12-26T12:46:55.204Z,4.65
2022-12-26T12:50:12.728Z,3.80
2022-12-26T12:52:57.531Z,3.50
2022-12-26T12:55:26.993Z,2.35
2022-12-26T13:00:34.042Z,2.13
2022-12-26T13:03:10.493Z,3.25
2022-12-26T13:06:09.373Z,1.55
2022-12-26T13:08:42.649Z,2.55
2022-12-26T13:11:33.104Z,2.20
2022-12-26T13:14:34.613Z,3.20
2022-12-26T13:17:06.569Z,1.73
2022-12-26T13:20:03.188Z,4.60
2022-12-26T13:23:02.111Z,2.00
2022-12-26T13:25:43.400Z,3.78
2022-12-26T13:28:28.003Z,3.50
2022-12-26T13:30:56.031Z,4.18
2022-12-26T13:33:23.201Z,6.40
2022-12-26T13:35:55.295Z,2.75
2022-12-26T13:38:24.267Z,2.97
2022-12-26T13:41:18.420Z,1.80
2022-12-26T13:44:05.371Z,2.28
2022-12-26T13:46:40.705Z,3.50
2022-12-26T13:49:27.912Z,3.50
2022-12-26T13:52:00.407Z,3.60
2022-12-26T13:54:28.819Z,2.22
2022-12-26T13:57:10.786Z,2.00
2022-12-26T13:59:49.087Z,2.45
2022-12-26T14:02:58.620Z,5.10
2022-12-26T14:05:39.057Z,2.13
2022-12-26T14:08:22.034Z,3.10
2022-12-26T14:11:32.458Z,2.17
2022-12-26T14:14:32.966Z,2.03
2022-12-26T14:17:35.072Z,2.28
2022-12-26T14:20:26.551Z,2.70
2022-12-26T14:23:11.251Z,3.28
2022-12-26T14:25:54.158Z,2.92
2022-12-26T14:28:35.191Z,1.88
2022-12-26T14:31:07.438Z,2.90
2022-12-26T14:33:46.856Z,2.35
2022-12-26T14:38:52.623Z,3.50
2022-12-26T14:41:39.118Z,5.47
2022-12-26T14:44:28.703Z,2.50
2022-12-26T14:46:59.190Z,2.88
2022-12-26T14:49:35.423Z,2.30
2022-12-26T14:52:24.275Z,5.45
2022-12-26T14:54:55.138Z,1.60
2022-12-26T14:57:43.862Z,3.47
2022-12-26T15:00:16.808Z,1.60
2022-12-26T15:02:48.182Z,2.00
2022-12-26T15:05:20.894Z,1.83
2022-12-26T15:08:10.526Z,2.83
2022-12-26T15:10:55.389Z,2.83
2022-12-26T15:13:28.124Z,2.60
2022-12-26T15:16:16.099Z,2.63
2022-12-26T15:19:14.015Z,4.35
2022-12-26T15:22:06.106Z,2.38
2022-12-26T15:28:38.711Z,3.03
2022-12-26T15:31:17.102Z,1.70
2022-12-26T15:33:59.914Z,1.70
2022-12-26T15:36:49.678Z,3.15
2022-12-26T15:39:28.433Z,2.88
2022-12-26T15:42:13.272Z,2.58
2022-12-26T15:44:52.217Z,4.20
2022-12-26T15:47:23.773Z,2.53
2022-12-26T15:49:56.633Z,3.00
2022-12-26T15:53:01.721Z,2.65
2022-12-26T15:55:46.932Z,4.07
2022-12-26T15:58:38.591Z,2.95
2022-12-26T16:01:05.746Z,3.63
2022-12-26T16:04:03.860Z,2.97
2022-12-26T16:06:52.134Z,4.57
2022-12-26T16:09:54.843Z,2.25
2022-12-26T16:12:21.625Z,2.58
2022-12-26T16:14:48.895Z,2.95
2022-12-26T16:17:15.499Z,2.03
2022-12-26T16:19:52.826Z,5.20
2022-12-26T16:22:43.883Z,3.25
2022-12-26T16:25:31.041Z,2.78
2022-12-26T16:28:00.060Z,2.60
2022-12-26T16:30:38.240Z,2.70
2022-12-26T16:33:05.514Z,2.15
2022-12-26T16:35:35.078Z,3.20
2022-12-26T16:38:04.111Z,6.03
2022-12-26T16:40:33.067Z,2.17
2022-12-26T16:43:24.662Z,1.52
2022-12-26T16:45:54.710Z,1.90
2022-12-26T16:48:24.256Z,1.45
2022-12-26T16:51:00.682Z,1.50
2022-12-26T16:53:36.857Z,3.95
2022-12-26T16:56:31.209Z,3.50
2022-12-26T16:59:22.520Z,2.25
2022-12-26T17:01:51.604Z,0.93
2022-12-26T17:04:26.643Z,0.70
2022-12-26T17:07:01.983Z,1.50
2022-12-26T17:09:32.039Z,2.17
2022-12-26T17:12:05.053Z,1.90
2022-12-26T17:14:38.356Z,0.80
2022-12-26T17:17:08.733Z,1.70
2022-12-26T17:19:37.045Z,0.95
2022-12-26T17:22:31.100Z,1.02
2022-12-26T17:25:30.383Z,1.80
2022-12-26T17:28:09.772Z,0.52
2022-12-26T17:33:15.532Z,4.35
2022-12-26T17:36:38.193Z,1.50
2022-12-26T17:38:32.117Z,0.77
2022-12-26T17:41:03.962Z,0.50
2022-12-26T17:43:33.328Z,1.08
2022-12-26T17:46:00.738Z,0.55
2022-12-26T17:48:27.776Z,1.13
2022-12-26T17:50:57.872Z,1.50
2022-12-26T17:53:40.376Z,6.63
2022-12-26T17:56:17.884Z,3.13
2022-12-26T17:58:44.675Z,1.98
2022-12-26T18:01:15.968Z,2.17
2022-12-26T18:03:45.820Z,1.25
2022-12-26T18:06:16.678Z,1.55
2022-12-26T18:08:44.288Z,4.15
2022-12-26T18:11:13.208Z,1.90
2022-12-26T18:13:40.359Z,4.40
2022-12-26T18:16:07.849Z,2.65
2022-12-26T18:18:42.837Z,1.48
2022-12-26T18:21:12.171Z,1.63
2022-12-26T18:23:39.793Z,1.60
2022-12-26T18:26:24.308Z,1.20
2022-12-26T18:28:52.007Z,1.23
2022-12-26T18:31:19.067Z,2.17
2022-12-26T18:33:45.802Z,1.10
2022-12-26T18:36:13.361Z,4.13
2022-12-26T18:38:40.038Z,1.23
2022-12-26T18:41:07.344Z,1.40
2022-12-26T18:43:33.939Z,1.73
2022-12-26T18:46:00.581Z,5.10
2022-12-26T18:48:27.345Z,1.95
2022-12-26T18:50:54.430Z,1.40
2022-12-26T18:53:21.070Z,1.98
2022-12-26T18:55:47.758Z,1.58
2022-12-26T18:58:14.481Z,1.45
2022-12-26T19:00:41.161Z,2.20
2022-12-26T19:03:07.871Z,2.67
2022-12-26T19:05:34.590Z,1.55
2022-12-26T19:08:02.224Z,6.75
2022-12-26T19:10:32.229Z,1.80
2022-12-26T19:13:05.572Z,2.10
2022-12-26T19:15:34.667Z,1.05
2022-12-26T19:18:01.532Z,2.00
2022-12-26T19:20:28.386Z,1.02
2022-12-26T19:22:55.652Z,1.40
2022-12-26T19:25:24.666Z,1.40
2022-12-26T19:27:52.055Z,3.67
2022-12-26T19:30:20.335Z,2.63
2022-12-26T19:32:47.177Z,2.88
2022-12-26T19:35:15.085Z,4.38
2022-12-26T19:37:41.984Z,4.50
2022-12-26T19:40:09.790Z,4.90
2022-12-26T19:42:37.477Z,4.63
2022-12-26T19:45:09.679Z,5.95
2022-12-26T19:47:37.131Z,5.28
2022-12-26T19:50:05.417Z,6.50
2022-12-26T19:52:32.290Z,4.82
2022-12-26T19:54:58.927Z,7.05
2022-12-26T19:57:25.549Z,5.50
2022-12-26T19:59:52.123Z,5.88
2022-12-26T20:02:18.940Z,7.72
2022-12-26T20:04:45.953Z,8.00
2022-12-26T20:07:12.573Z,4.75
2022-12-26T20:09:39.368Z,5.13
2022-12-26T20:12:06.222Z,8.00
2022-12-26T20:14:32.965Z,8.45
2022-12-26T20:17:06.157Z,6.07
2022-12-26T20:19:34.190Z,6.05
2022-12-26T20:22:00.904Z,5.57
2022-12-26T20:24:27.514Z,7.07
2022-12-26T20:26:54.559Z,6.22
2022-12-26T20:29:21.755Z,5.40
2022-12-26T20:31:49.434Z,11.13
2022-12-26T20:34:16.595Z,5.50
2022-12-26T20:36:43.505Z,7.50
2022-12-26T20:39:15.782Z,9.38
2022-12-26T20:41:43.033Z,10.38
2022-12-26T20:44:14.812Z,7.35
2022-12-26T20:46:42.654Z,7.38
2022-12-26T20:49:10.015Z,10.27
2022-12-26T20:51:38.962Z,6.55
2022-12-26T20:54:07.783Z,7.40
2022-12-26T20:56:35.601Z,7.40
2022-12-26T20:59:03.303Z,6.90
2022-12-26T21:01:30.137Z,15.32
2022-12-26T21:03:57.935Z,10.35
2022-12-26T21:06:30.466Z,9.63
2022-12-26T21:08:57.796Z,9.75
2022-12-26T21:11:27.471Z,8.75
2022-12-26T21:14:00.470Z,9.45
2022-12-26T21:16:30.268Z,13.50
2022-12-26T21:18:57.969Z,7.53
2022-12-26T21:21:27.462Z,7.82
2022-12-26T21:26:26.523Z,18.75
2022-12-26T21:28:58.472Z,8.32
2022-12-26T21:31:25.608Z,10.15
2022-12-26T21:33:55.288Z,8.23
2022-12-26T21:36:22.137Z,5.57
2022-12-26T21:38:48.777Z,9.35
2022-12-26T21:41:16.911Z,8.25
2022-12-26T21:43:43.482Z,5.45
2022-12-26T21:46:14.213Z,8.23
2022-12-26T21:48:47.374Z,9.32
2022-12-26T21:51:19.329Z,11.35
2022-12-26T21:53:46.907Z,8.55
2022-12-26T21:56:15.729Z,8.10
2022-12-26T21:59:01.840Z,6.85
2022-12-26T22:01:30.203Z,6.75
2022-12-26T22:04:15.858Z,7.80
2022-12-26T22:06:43.158Z,11.80
2022-12-26T22:09:10.909Z,9.18
2022-12-26T22:11:56.076Z,10.48
2022-12-26T22:14:23.008Z,5.50
2022-12-26T22:16:53.956Z,6.60
2022-12-26T22:19:20.899Z,8.45
2022-12-26T22:21:47.616Z,6.65
2022-12-26T22:24:14.988Z,5.65
2022-12-26T22:26:41.708Z,7.20
2022-12-26T22:29:08.653Z,3.90
2022-12-26T22:31:36.942Z,7.38
2022-12-26T22:34:06.865Z,5.18
2022-12-26T22:36:34.305Z,4.68
2022-12-26T22:39:01.099Z,4.68
2022-12-26T22:41:28.708Z,3.83
2022-12-26T22:43:55.978Z,3.50
2022-12-26T22:46:22.845Z,4.20
2022-12-26T22:48:50.036Z,5.40
2022-12-26T22:51:18.885Z,5.88
2022-12-26T22:53:46.019Z,4.22
2022-12-26T22:56:13.336Z,6.15
2022-12-26T22:58:39.974Z,5.55
2022-12-26T23:01:18.440Z,3.28
2022-12-26T23:03:45.832Z,4.78
2022-12-26T23:06:30.989Z,2.90
2022-12-26T23:09:00.024Z,4.63
2022-12-26T23:11:34.306Z,6.47
2022-12-26T23:14:03.389Z,3.85
2022-12-26T23:16:45.344Z,3.93
2022-12-26T23:20:03.004Z,6.22
2022-12-26T23:22:29.998Z,6.10
2022-12-26T23:24:56.683Z,5.53
2022-12-26T23:27:41.810Z,12.02
2022-12-26T23:30:18.064Z,5.18
2022-12-26T23:32:52.459Z,7.93
2022-12-26T23:35:21.901Z,4.55
2022-12-26T23:40:16.460Z,9.93
2022-12-26T23:42:43.617Z,6.85
2022-12-26T23:45:11.596Z,3.78
2022-12-26T23:47:40.129Z,4.82
2022-12-26T23:50:09.005Z,5.33
2022-12-26T23:52:36.031Z,7.65
2022-12-26T23:55:03.105Z,7.25
2022-12-26T23:57:29.702Z,7.90
2022-12-26T23:59:56.306Z,6.55
